Time;durP1;ratioP1;P1;durP2;ratioP2;P2;SDS_P1;SDS_P2;PMS_P1;PMS_P2;Temp;Humidity;BMP_temperature;BMP_pressure;BME280_temperature;BME280_humidity;BME280_pressure;Samples;Min_cycle;Max_cycle;Signal;HPM_P1;HPM_P2
2023/10/12 00:01:32;;;;;;;6.20;2.83;;;14.20;99.90;;;;;;5005637;28;20116;-81
2023/10/12 00:04:05;;;;;;;10.10;2.97;;;14.10;99.90;;;;;;5013667;28;20058;-81
2023/10/12 00:06:37;;;;;;;4.13;2.00;;;14.20;99.90;;;;;;5012662;28;20121;-79
2023/10/12 00:09:16;;;;;;;7.93;2.97;;;14.10;99.90;;;;;;5013441;28;20058;-84
2023/10/12 00:11:55;;;;;;;9.77;2.80;;;14.20;99.90;;;;;;5013585;28;20049;-83
2023/10/12 00:14:28;;;;;;;7.70;3.08;;;14.20;99.90;;;;;;5012453;28;20058;-82
2023/10/12 00:16:54;;;;;;;6.78;2.60;;;14.20;99.90;;;;;;5013448;28;20053;-84
2023/10/12 00:19:23;;;;;;;8.52;3.00;;;14.20;99.90;;;;;;5012408;28;20053;-83
2023/10/12 00:21:50;;;;;;;5.57;2.45;;;14.20;99.90;;;;;;5012420;28;20054;-84
2023/10/12 00:24:18;;;;;;;7.30;2.92;;;14.20;99.90;;;;;;5013533;28;20089;-83
2023/10/12 00:26:44;;;;;;;8.13;2.28;;;14.10;99.90;;;;;;5013201;28;20038;-80
2023/10/12 00:29:10;;;;;;;9.60;2.80;;;14.10;99.90;;;;;;5012135;28;20057;-83
2023/10/12 00:31:41;;;;;;;5.85;2.45;;;14.10;99.90;;;;;;5013471;28;20053;-79
2023/10/12 00:34:08;;;;;;;7.90;2.38;;;14.10;99.90;;;;;;5013384;28;20050;-81
2023/10/12 00:36:37;;;;;;;7.68;2.63;;;14.10;99.90;;;;;;5013245;28;20061;-83
2023/10/12 00:39:09;;;;;;;9.23;3.20;;;14.20;99.90;;;;;;5013042;28;20148;-83
2023/10/12 00:41:44;;;;;;;5.28;2.33;;;14.20;99.90;;;;;;5012943;28;20060;-83
2023/10/12 00:44:12;;;;;;;5.47;2.85;;;14.20;99.90;;;;;;5012290;28;20049;-83
2023/10/12 00:46:58;;;;;;;6.60;3.05;;;14.20;99.90;;;;;;5012814;28;20046;-81
2023/10/12 00:49:27;;;;;;;6.07;2.97;;;14.30;99.90;;;;;;5013106;28;20045;-84
2023/10/12 00:52:08;;;;;;;8.13;2.53;;;14.20;99.90;;;;;;5012808;28;20125;-82
2023/10/12 00:57:05;;;;;;;8.02;2.60;;;14.20;99.90;;;;;;5012773;28;20056;-82
2023/10/12 00:59:32;;;;;;;7.60;2.67;;;14.10;99.90;;;;;;5011849;28;20045;-82
2023/10/12 01:02:24;;;;;;;4.57;2.65;;;14.10;99.90;;;;;;5012808;28;20474;-82
2023/10/12 01:04:53;;;;;;;8.43;2.60;;;14.10;99.90;;;;;;5012024;28;20057;-82
2023/10/12 01:07:20;;;;;;;7.15;2.35;;;14.10;99.90;;;;;;5012649;28;20054;-83
2023/10/12 01:09:54;;;;;;;4.85;2.45;;;14.10;99.90;;;;;;5012613;28;20046;-82
2023/10/12 01:12:19;;;;;;;8.70;3.17;;;14.20;99.90;;;;;;5013033;28;20089;-81
2023/10/12 01:14:54;;;;;;;8.45;2.88;;;14.20;99.90;;;;;;5012661;28;20069;-81
2023/10/12 01:17:29;;;;;;;5.68;2.25;;;14.30;99.90;;;;;;5012677;28;20046;-83
2023/10/12 01:19:58;;;;;;;6.90;2.65;;;14.20;99.90;;;;;;5012529;28;20104;-82
2023/10/12 01:22:27;;;;;;;9.88;2.85;;;14.20;99.90;;;;;;5012558;28;20155;-81
2023/10/12 01:27:22;;;;;;;7.78;2.60;;;14.10;99.90;;;;;;5016708;28;20477;-82
2023/10/12 01:29:48;;;;;;;6.88;2.58;;;14.00;99.90;;;;;;5016782;28;20053;-82
2023/10/12 01:34:51;;;;;;;9.50;3.78;;;14.00;99.90;;;;;;5016247;28;20050;-83
2023/10/12 01:37:23;;;;;;;6.50;3.00;;;14.00;99.90;;;;;;5016576;28;20161;-80
2023/10/12 01:39:57;;;;;;;9.63;2.63;;;14.00;99.90;;;;;;5015230;28;20049;-83
2023/10/12 01:42:42;;;;;;;8.65;2.85;;;14.10;99.90;;;;;;5016102;28;20046;-79
2023/10/12 01:45:18;;;;;;;8.05;2.75;;;14.10;99.90;;;;;;5016064;28;20081;-82
2023/10/12 01:48:06;;;;;;;9.73;4.30;;;14.10;99.90;;;;;;5015608;28;20049;-79
2023/10/12 01:50:38;;;;;;;12.48;3.45;;;14.00;99.90;;;;;;5016063;28;20060;-82
2023/10/12 01:55:50;;;;;;;5.68;2.55;;;13.90;99.90;;;;;;5015993;28;20038;-81
2023/10/12 01:58:17;;;;;;;9.02;2.90;;;13.90;99.90;;;;;;5015745;28;20053;-82
2023/10/12 02:00:51;;;;;;;8.15;2.92;;;14.00;99.90;;;;;;5015439;28;20500;-83
2023/10/12 02:03:21;;;;;;;15.13;3.70;;;13.90;99.90;;;;;;5015592;28;20073;-81
2023/10/12 02:05:50;;;;;;;9.02;3.22;;;14.00;99.90;;;;;;5015370;28;20580;-81
2023/10/12 02:08:17;;;;;;;6.55;3.30;;;14.00;99.90;;;;;;5016067;28;20056;-81
2023/10/12 02:11:05;;;;;;;8.23;3.17;;;13.90;99.90;;;;;;5015582;28;20054;-81
2023/10/12 02:13:33;;;;;;;8.48;3.00;;;13.90;99.90;;;;;;5015931;28;20066;-82
2023/10/12 02:16:01;;;;;;;9.98;3.00;;;13.80;99.90;;;;;;5015607;28;20046;-82
2023/10/12 02:18:27;;;;;;;9.63;3.30;;;13.80;99.90;;;;;;5015599;28;20054;-81
2023/10/12 02:21:20;;;;;;;8.50;2.63;;;13.80;99.90;;;;;;5014545;28;20053;-80
2023/10/12 02:23:57;;;;;;;4.22;2.38;;;13.80;99.90;;;;;;5014423;28;20114;-81
2023/10/12 02:31:34;;;;;;;10.38;3.03;;;13.80;99.90;;;;;;5015773;28;20104;-80
2023/10/12 02:34:02;;;;;;;9.00;3.47;;;13.80;99.90;;;;;;5015481;28;20061;-81
2023/10/12 02:36:28;;;;;;;7.10;2.63;;;13.70;99.90;;;;;;5014574;28;20466;-81
2023/10/12 02:39:00;;;;;;;8.27;3.40;;;13.70;99.90;;;;;;5014446;28;20137;-81
2023/10/12 02:41:26;;;;;;;9.68;3.35;;;13.70;99.90;;;;;;5015109;28;20042;-80
2023/10/12 02:44:11;;;;;;;7.03;3.05;;;13.70;99.90;;;;;;5014991;28;20057;-80
2023/10/12 02:46:43;;;;;;;6.95;3.97;;;13.80;99.90;;;;;;5015590;28;20466;-80
2023/10/12 02:49:09;;;;;;;9.47;3.23;;;13.70;99.90;;;;;;5015006;28;20050;-81
2023/10/12 02:51:38;;;;;;;9.48;2.75;;;13.70;99.90;;;;;;5013676;28;20056;-81
2023/10/12 02:54:04;;;;;;;7.30;3.05;;;13.60;99.90;;;;;;5014683;28;20530;-81
2023/10/12 02:56:31;;;;;;;7.88;2.70;;;13.50;99.90;;;;;;5013594;28;20129;-79
2023/10/12 02:59:03;;;;;;;9.13;4.80;;;13.50;99.90;;;;;;5015197;28;20121;-81
2023/10/12 03:01:29;;;;;;;13.73;3.40;;;13.50;99.90;;;;;;5014460;28;20058;-81
2023/10/12 03:03:56;;;;;;;8.73;2.47;;;13.50;99.90;;;;;;5015005;28;20115;-81
2023/10/12 03:06:23;;;;;;;6.50;2.80;;;13.50;99.90;;;;;;5014895;28;20124;-79
2023/10/12 03:11:27;;;;;;;10.07;3.38;;;13.50;99.90;;;;;;5014668;28;20100;-80
2023/10/12 03:14:15;;;;;;;12.15;3.25;;;13.40;99.90;;;;;;5014150;28;20566;-81
2023/10/12 03:16:42;;;;;;;7.38;3.20;;;13.40;99.90;;;;;;5014770;28;20046;-81
2023/10/12 03:21:47;;;;;;;7.22;2.78;;;13.40;99.90;;;;;;5014478;28;20490;-82
2023/10/12 03:24:25;;;;;;;9.25;3.63;;;13.30;99.90;;;;;;5014226;28;20046;-81
2023/10/12 03:29:29;;;;;;;9.32;3.30;;;13.40;99.90;;;;;;5014132;28;20166;-81
2023/10/12 03:31:58;;;;;;;7.28;3.22;;;13.30;99.90;;;;;;5014124;28;20496;-81
2023/10/12 03:34:46;;;;;;;8.35;3.63;;;13.30;99.90;;;;;;5014023;28;20053;-81
2023/10/12 03:37:14;;;;;;;7.43;3.25;;;13.20;99.90;;;;;;5014731;28;20188;-81
2023/10/12 03:39:59;;;;;;;9.55;3.30;;;13.30;99.90;;;;;;5014409;28;20061;-81
2023/10/12 03:50:26;;;;;;;8.32;3.95;;;13.30;99.90;;;;;;5013074;28;20080;-78
2023/10/12 03:52:53;;;;;;;9.27;3.45;;;13.20;99.90;;;;;;4996759;28;20053;-81
2023/10/12 03:55:28;;;;;;;10.13;2.90;;;13.20;99.90;;;;;;5013867;28;20312;-80
2023/10/12 03:58:05;;;;;;;9.07;3.60;;;13.20;99.90;;;;;;5014117;28;20092;-81
2023/10/12 04:01:05;;;;;;;7.68;3.42;;;13.10;99.90;;;;;;5013642;28;20467;-81
2023/10/12 04:03:37;;;;;;;7.45;4.03;;;13.10;99.90;;;;;;5012696;28;20058;-79
2023/10/12 04:06:23;;;;;;;6.38;3.30;;;13.00;99.90;;;;;;5013618;28;20046;-79
2023/10/12 04:08:54;;;;;;;8.30;3.85;;;13.10;99.90;;;;;;5013554;28;20176;-81
2023/10/12 04:14:18;;;;;;;8.38;3.72;;;13.10;99.90;;;;;;5013236;28;20085;-80
2023/10/12 04:16:45;;;;;;;8.05;3.65;;;13.10;99.90;;;;;;5013180;28;20050;-81
2023/10/12 04:19:15;;;;;;;7.25;3.13;;;13.00;99.90;;;;;;5013500;28;20053;-80
2023/10/12 04:21:59;;;;;;;8.23;3.28;;;13.00;99.90;;;;;;5012135;28;20486;-78
2023/10/12 04:24:27;;;;;;;9.43;3.95;;;13.00;99.90;;;;;;5013285;28;20050;-81
2023/10/12 04:29:39;;;;;;;11.02;3.30;;;12.90;99.90;;;;;;5012564;28;20427;-80
2023/10/12 04:32:15;;;;;;;8.23;3.10;;;12.90;99.90;;;;;;5012879;28;20053;-81
2023/10/12 04:34:49;;;;;;;13.77;4.13;;;13.00;99.90;;;;;;5012910;28;20046;-80
2023/10/12 04:37:22;;;;;;;6.45;3.70;;;13.00;99.90;;;;;;5012827;28;20466;-80
2023/10/12 04:39:56;;;;;;;9.25;3.72;;;13.00;99.90;;;;;;5012862;28;20046;-80
2023/10/12 04:42:26;;;;;;;8.88;4.22;;;12.90;99.90;;;;;;5012933;28;20120;-80
2023/10/12 04:45:03;;;;;;;11.02;3.50;;;12.90;99.90;;;;;;5012653;28;20042;-79
2023/10/12 04:47:30;;;;;;;9.88;3.67;;;12.90;99.90;;;;;;5012379;28;20056;-80
2023/10/12 04:49:57;;;;;;;11.93;4.57;;;12.90;99.90;;;;;;5013001;28;20383;-81
2023/10/12 04:52:33;;;;;;;7.97;3.38;;;12.80;99.90;;;;;;5012633;28;20057;-81
2023/10/12 04:55:06;;;;;;;11.65;3.80;;;12.80;99.90;;;;;;5011427;28;20096;-80
2023/10/12 04:57:34;;;;;;;8.00;4.68;;;12.90;99.90;;;;;;5012632;28;20053;-79
2023/10/12 05:00:18;;;;;;;8.15;3.40;;;12.80;99.90;;;;;;5012264;28;20126;-80
2023/10/12 05:03:22;;;;;;;6.32;3.75;;;12.90;99.90;;;;;;5012687;28;20062;-78
2023/10/12 05:05:55;;;;;;;10.13;5.38;;;13.00;99.90;;;;;;5010952;28;20046;-80
2023/10/12 05:08:21;;;;;;;11.05;3.78;;;12.90;99.90;;;;;;5011335;28;20622;-79
2023/10/12 05:10:46;;;;;;;10.38;4.20;;;12.90;99.90;;;;;;5011467;28;20061;-79
2023/10/12 05:13:19;;;;;;;9.73;3.75;;;12.90;99.90;;;;;;4995290;28;20046;-80
2023/10/12 05:18:21;;;;;;;10.43;3.65;;;12.90;99.90;;;;;;5012905;28;20058;-81
2023/10/12 05:20:47;;;;;;;10.45;3.80;;;12.90;99.90;;;;;;5012286;28;20046;-81
2023/10/12 05:23:13;;;;;;;5.93;3.15;;;12.80;99.90;;;;;;5012225;28;20057;-80
2023/10/12 05:28:27;;;;;;;6.00;4.20;;;12.90;99.90;;;;;;5012283;28;20120;-82
2023/10/12 05:30:59;;;;;;;6.07;3.10;;;12.90;99.90;;;;;;5012399;28;20045;-81
2023/10/12 05:34:25;;;;;;;8.88;3.30;;;12.90;99.90;;;;;;5012259;28;20042;-81
2023/10/12 05:36:15;;;;;;;8.30;3.35;;;12.90;99.90;;;;;;5004888;28;20049;-81
2023/10/12 05:38:51;;;;;;;6.00;3.33;;;12.80;99.90;;;;;;5012298;28;20065;-81
2023/10/12 05:41:34;;;;;;;7.18;3.22;;;12.70;99.90;;;;;;5012104;28;20112;-80
2023/10/12 05:44:03;;;;;;;8.75;3.53;;;12.70;99.90;;;;;;5011059;28;20089;-81
2023/10/12 05:46:35;;;;;;;5.60;3.28;;;12.70;99.90;;;;;;5012688;28;20069;-81
2023/10/12 05:49:02;;;;;;;7.32;3.92;;;12.60;99.90;;;;;;5012131;28;20112;-81
2023/10/12 05:51:28;;;;;;;7.93;3.17;;;12.60;99.90;;;;;;5011850;28;20038;-81
2023/10/12 05:54:03;;;;;;;12.07;3.80;;;12.50;99.90;;;;;;5012030;28;20044;-80
2023/10/12 05:56:34;;;;;;;9.00;3.67;;;12.50;99.90;;;;;;5012178;28;20487;-80
2023/10/12 05:59:00;;;;;;;8.23;3.08;;;12.50;99.90;;;;;;5012187;28;20092;-81
2023/10/12 06:01:32;;;;;;;6.80;3.60;;;12.40;99.90;;;;;;5012392;28;20057;-82
2023/10/12 06:04:05;;;;;;;5.45;2.63;;;12.40;99.90;;;;;;5012586;28;20124;-81
2023/10/12 06:06:35;;;;;;;8.52;2.35;;;12.40;99.90;;;;;;5011743;28;20486;-82
2023/10/12 06:09:11;;;;;;;7.35;3.65;;;12.40;99.90;;;;;;5012012;28;20054;-81
2023/10/12 06:11:44;;;;;;;8.07;3.90;;;12.30;99.90;;;;;;5013434;28;20129;-81
2023/10/12 06:14:14;;;;;;;9.40;2.83;;;12.20;99.90;;;;;;5016031;28;20049;-81
2023/10/12 06:16:41;;;;;;;7.60;3.13;;;12.10;99.90;;;;;;5015751;28;20046;-82
2023/10/12 06:19:26;;;;;;;9.88;3.53;;;12.00;99.90;;;;;;5015845;28;20042;-80
2023/10/12 06:21:53;;;;;;;6.28;3.65;;;12.00;99.90;;;;;;5015979;28;20123;-80
2023/10/12 06:24:36;;;;;;;5.68;3.05;;;12.00;99.90;;;;;;5015593;28;20046;-79
2023/10/12 06:30:16;;;;;;;4.67;2.93;;;12.00;99.90;;;;;;5016156;28;20056;-81
2023/10/12 06:32:42;;;;;;;7.68;3.03;;;12.10;99.90;;;;;;5016259;28;20507;-79
2023/10/12 06:37:49;;;;;;;4.43;2.78;;;12.10;99.90;;;;;;5030195;28;20068;-82
2023/10/12 06:45:52;;;;;;;6.30;2.72;;;12.20;99.90;;;;;;5014727;28;20488;-79
2023/10/12 06:51:06;;;;;;;3.55;2.03;;;12.10;99.90;;;;;;5014988;28;20061;-84
2023/10/12 06:53:36;;;;;;;5.43;2.92;;;12.20;99.90;;;;;;5014947;28;20095;-79
2023/10/12 06:56:50;;;;;;;5.88;2.92;;;12.20;99.90;;;;;;5014835;28;20125;-82
2023/10/12 07:01:39;;;;;;;6.85;3.55;;;12.20;99.90;;;;;;5014678;28;20103;-83
2023/10/12 07:04:13;;;;;;;8.05;3.30;;;12.30;99.90;;;;;;5014735;28;20089;-83
2023/10/12 07:07:07;;;;;;;8.90;3.45;;;12.30;99.90;;;;;;5014971;28;20050;-78
2023/10/12 07:09:40;;;;;;;7.13;2.70;;;12.40;99.90;;;;;;5014968;28;20124;-83
2023/10/12 07:12:07;;;;;;;6.05;2.97;;;12.40;99.90;;;;;;5014425;28;20153;-82
2023/10/12 07:14:37;;;;;;;4.65;3.15;;;12.40;99.90;;;;;;5014992;28;20042;-81
2023/10/12 07:17:04;;;;;;;8.68;3.10;;;12.50;99.90;;;;;;5014024;28;20050;-84
2023/10/12 07:19:30;;;;;;;7.35;3.08;;;12.60;99.90;;;;;;5015032;28;20379;-81
2023/10/12 07:22:01;;;;;;;6.93;2.90;;;12.60;99.90;;;;;;5014268;28;20042;-81
2023/10/12 07:24:27;;;;;;;7.43;2.83;;;12.70;99.90;;;;;;5013699;28;20053;-81
2023/10/12 07:26:53;;;;;;;12.75;3.65;;;12.70;99.90;;;;;;5014328;28;20045;-83
2023/10/12 07:29:35;;;;;;;7.50;2.78;;;12.70;99.90;;;;;;5014739;28;20511;-82
2023/10/12 07:34:54;;;;;;;6.40;3.20;;;13.00;99.90;;;;;;5014087;28;20050;-83
2023/10/12 07:37:20;;;;;;;6.97;2.58;;;13.00;99.90;;;;;;5013440;28;20538;-81
2023/10/12 07:39:50;;;;;;;6.93;2.75;;;13.10;99.90;;;;;;5014285;28;20104;-82
2023/10/12 07:42:25;;;;;;;6.35;2.90;;;13.20;99.90;;;;;;5013905;28;20060;-82
2023/10/12 07:44:54;;;;;;;7.07;2.80;;;13.30;99.90;;;;;;5013761;28;20046;-82
2023/10/12 07:47:31;;;;;;;7.45;3.20;;;13.40;99.90;;;;;;5013839;28;20104;-82
2023/10/12 07:50:08;;;;;;;8.60;2.95;;;13.50;99.90;;;;;;5013094;28;20049;-80
2023/10/12 07:55:04;;;;;;;7.80;3.20;;;13.70;99.90;;;;;;5013441;28;20061;-81
2023/10/12 07:57:30;;;;;;;7.60;2.72;;;13.90;99.90;;;;;;5012402;28;20061;-83
2023/10/12 07:59:59;;;;;;;6.53;2.90;;;14.00;99.90;;;;;;5014315;28;20045;-82
2023/10/12 08:08:07;;;;;;;4.85;2.97;;;14.30;99.90;;;;;;5012187;28;20061;-82
2023/10/12 08:13:48;;;;;;;7.40;2.60;;;14.40;99.90;;;;;;5014145;28;20057;-80
2023/10/12 08:16:04;;;;;;;4.45;1.88;;;14.40;99.90;;;;;;5011311;28;20045;-82
2023/10/12 08:21:23;;;;;;;6.13;2.50;;;14.40;99.90;;;;;;5013342;28;20065;-82
2023/10/12 08:24:09;;;;;;;6.88;2.45;;;14.40;99.90;;;;;;5013521;28;20042;-84
2023/10/12 08:31:46;;;;;;;;;;;14.50;99.90;;;;;;5013883;28;20133;-82
2023/10/12 08:34:13;;;;;;;7.70;2.00;;;14.40;99.90;;;;;;5013041;28;20383;-81
2023/10/12 08:37:17;;;;;;;8.07;2.35;;;14.50;99.90;;;;;;5012133;28;20044;-82
2023/10/12 08:39:37;;;;;;;6.68;3.17;;;14.60;99.90;;;;;;5013631;28;20042;-83
2023/10/12 08:44:51;;;;;;;7.15;2.28;;;14.90;99.90;;;;;;5013319;28;20046;-84
2023/10/12 08:50:05;;;;;;;8.68;2.70;;;15.10;99.90;;;;;;5013291;28;20061;-82
2023/10/12 08:52:39;;;;;;;7.93;2.75;;;15.30;99.90;;;;;;5013354;28;20050;-84
2023/10/12 08:55:13;;;;;;;8.88;2.28;;;15.30;99.90;;;;;;5012615;28;20487;-83
2023/10/12 08:57:56;;;;;;;7.05;2.20;;;15.40;99.90;;;;;;5012786;28;20041;-82
2023/10/12 09:03:07;;;;;;;6.40;2.75;;;15.80;99.90;;;;;;5013022;28;20064;-82
2023/10/12 09:05:34;;;;;;;10.30;3.10;;;16.00;99.90;;;;;;5012728;28;20467;-82
2023/10/12 09:10:51;;;;;;;5.15;2.17;;;16.20;99.90;;;;;;5012240;28;20137;-81
2023/10/12 09:13:20;;;;;;;7.32;1.98;;;16.30;99.90;;;;;;5011941;28;20054;-80
2023/10/12 09:15:50;;;;;;;6.40;1.90;;;16.40;99.90;;;;;;5012523;28;20136;-79
2023/10/12 09:18:17;;;;;;;7.97;2.55;;;16.50;99.90;;;;;;5012924;28;20046;-83
2023/10/12 09:23:42;;;;;;;3.88;1.98;;;16.60;99.90;;;;;;5012972;28;20085;-81
2023/10/12 09:31:48;;;;;;;2.75;1.98;;;16.50;99.90;;;;;;5012969;28;20064;-85
2023/10/12 09:36:59;;;;;;;5.75;2.38;;;16.50;99.90;;;;;;5012526;28;20057;-81
2023/10/12 09:39:28;;;;;;;6.40;2.30;;;16.50;99.90;;;;;;5012591;28;20057;-84
2023/10/12 09:42:22;;;;;;;4.43;1.85;;;16.50;99.90;;;;;;5012942;28;20050;-82
2023/10/12 09:44:40;;;;;;;8.60;2.55;;;16.70;99.90;;;;;;5011800;28;20065;-85
2023/10/12 09:47:16;;;;;;;6.20;2.28;;;16.90;99.90;;;;;;5013947;28;20103;-83
2023/10/12 09:49:54;;;;;;;6.72;2.25;;;17.30;99.90;;;;;;5016708;28;20053;-82
2023/10/12 09:52:23;;;;;;;6.68;1.98;;;17.60;99.90;;;;;;5016262;28;20049;-85
2023/10/12 09:55:14;;;;;;;5.05;2.17;;;17.70;99.90;;;;;;5016051;28;20050;-82
2023/10/12 09:57:49;;;;;;;13.88;2.72;;;17.80;99.90;;;;;;5015940;28;20118;-85
2023/10/12 10:00:28;;;;;;;8.27;2.13;;;18.10;99.90;;;;;;5015953;28;20054;-85
2023/10/12 10:02:59;;;;;;;7.00;1.95;;;18.20;99.90;;;;;;5015416;28;20058;-84
2023/10/12 10:05:51;;;;;;;5.80;1.98;;;18.30;99.90;;;;;;5015696;28;20555;-84
2023/10/12 10:08:18;;;;;;;10.52;2.15;;;18.70;99.90;;;;;;5015623;28;20053;-80
2023/10/12 10:10:45;;;;;;;5.40;1.98;;;19.10;99.90;;;;;;5014490;28;20050;-83
2023/10/12 10:13:49;;;;;;;5.18;2.08;;;20.50;99.90;;;;;;5015551;28;20050;-85
2023/10/12 10:16:17;;;;;;;;;;;21.80;99.90;;;;;;5016410;28;20451;-82
2023/10/12 10:18:56;;;;;;;8.18;2.10;;;21.20;95.90;;;;;;5015622;28;19931;-84
2023/10/12 10:21:28;;;;;;;6.35;1.90;;;20.50;99.90;;;;;;5015440;28;20049;-83
2023/10/12 10:23:57;;;;;;;8.10;2.50;;;19.90;99.90;;;;;;5015599;28;20046;-83
2023/10/12 10:26:30;;;;;;;7.25;2.30;;;19.90;99.90;;;;;;5015271;28;20072;-84
2023/10/12 10:29:17;;;;;;;8.63;2.30;;;19.90;99.90;;;;;;5015966;28;20046;-83
2023/10/12 10:31:50;;;;;;;5.70;1.70;;;19.80;99.90;;;;;;5015197;28;20537;-84
2023/10/12 10:34:17;;;;;;;;;;;19.70;99.90;;;;;;5015734;28;20041;-84
2023/10/12 10:36:52;;;;;;;7.53;2.30;;;19.30;99.90;;;;;;5015329;28;19932;-83
2023/10/12 10:41:46;;;;;;;8.70;2.60;;;19.30;99.90;;;;;;5015077;28;20058;-85
2023/10/12 10:44:26;;;;;;;9.93;2.30;;;19.30;99.90;;;;;;4997747;28;20120;-83
2023/10/12 10:47:00;;;;;;;4.88;2.85;;;19.10;99.90;;;;;;5015203;28;20050;-82
2023/10/12 10:49:36;;;;;;;5.93;2.33;;;19.00;99.90;;;;;;5014299;28;20046;-85
2023/10/12 10:54:37;;;;;;;8.38;2.40;;;18.90;99.90;;;;;;5015461;28;20046;-83
2023/10/12 10:57:17;;;;;;;10.43;2.72;;;18.80;99.90;;;;;;5014823;28;20549;-82
2023/10/12 10:59:46;;;;;;;6.85;2.03;;;18.90;99.90;;;;;;5014458;28;20177;-82
2023/10/12 11:02:11;;;;;;;7.40;2.00;;;18.80;99.90;;;;;;5014558;28;20137;-83
2023/10/12 11:07:15;;;;;;;9.18;2.30;;;18.30;99.90;;;;;;5014439;28;20144;-85
2023/10/12 11:12:31;;;;;;;5.47;2.25;;;18.40;99.90;;;;;;5014671;28;20514;-85
2023/10/12 11:15:01;;;;;;;7.63;2.63;;;18.40;99.90;;;;;;5015083;28;20104;-81
2023/10/12 11:17:35;;;;;;;5.85;1.80;;;18.30;99.90;;;;;;5014489;28;20046;-81
2023/10/12 11:20:07;;;;;;;5.68;1.90;;;18.30;99.90;;;;;;5014643;28;20068;-84
2023/10/12 11:22:34;;;;;;;7.20;2.05;;;18.20;99.90;;;;;;5014445;28;20057;-81
2023/10/12 11:25:01;;;;;;;3.92;2.47;;;18.10;99.90;;;;;;5014215;28;20486;-85
2023/10/12 11:27:34;;;;;;;5.13;2.15;;;18.00;99.90;;;;;;5014372;28;20054;-82
2023/10/12 11:30:04;;;;;;;5.10;2.00;;;18.00;99.90;;;;;;5014207;28;20045;-82
2023/10/12 11:32:32;;;;;;;6.63;2.45;;;18.00;99.90;;;;;;5013038;28;20053;-82
2023/10/12 11:35:01;;;;;;;5.70;2.30;;;18.00;99.90;;;;;;5013104;28;20128;-81
2023/10/12 11:37:30;;;;;;;6.43;2.38;;;17.80;99.90;;;;;;5014475;28;20042;-82
2023/10/12 11:39:57;;;;;;;8.70;2.72;;;17.60;99.90;;;;;;5014043;28;20089;-82
2023/10/12 11:42:23;;;;;;;8.32;2.28;;;17.50;99.90;;;;;;5014376;28;20088;-83
2023/10/12 11:44:51;;;;;;;6.95;2.42;;;17.50;99.90;;;;;;5013901;28;20061;-83
2023/10/12 11:47:17;;;;;;;8.27;3.08;;;17.40;99.90;;;;;;5014272;28;20054;-79
2023/10/12 11:49:57;;;;;;;5.65;2.17;;;17.40;99.90;;;;;;5014278;28;20068;-84
2023/10/12 11:52:30;;;;;;;5.03;2.15;;;17.40;99.90;;;;;;5013953;28;20069;-82
2023/10/12 11:55:03;;;;;;;5.10;2.40;;;17.30;99.90;;;;;;5014299;28;20058;-84
2023/10/12 11:57:29;;;;;;;6.95;2.30;;;17.30;99.90;;;;;;5013700;28;20053;-80
2023/10/12 11:59:56;;;;;;;7.38;2.20;;;17.30;99.90;;;;;;5013808;28;20046;-85
2023/10/12 12:02:23;;;;;;;6.22;2.38;;;17.30;99.90;;;;;;5013674;28;20085;-82
2023/10/12 12:04:50;;;;;;;6.55;2.53;;;17.30;99.90;;;;;;5013498;28;20054;-84
2023/10/12 12:07:16;;;;;;;9.95;2.60;;;17.40;99.90;;;;;;5013018;28;20092;-83
2023/10/12 12:09:48;;;;;;;7.00;2.72;;;17.40;99.90;;;;;;5013393;28;20045;-82
2023/10/12 12:12:16;;;;;;;7.55;2.53;;;17.50;99.90;;;;;;5014110;28;20240;-82
2023/10/12 12:14:49;;;;;;;7.25;2.40;;;17.50;99.90;;;;;;5013317;28;20085;-81
2023/10/12 12:17:17;;;;;;;4.40;1.98;;;17.50;99.90;;;;;;5012877;28;20099;-84
2023/10/12 12:19:43;;;;;;;7.53;2.15;;;17.60;99.90;;;;;;5013549;28;20060;-83
2023/10/12 12:22:15;;;;;;;4.75;2.20;;;17.70;99.90;;;;;;5013647;28;20049;-82
2023/10/12 12:24:44;;;;;;;7.82;2.47;;;17.70;99.90;;;;;;5013268;28;20045;-84
2023/10/12 12:27:37;;;;;;;4.15;1.88;;;17.70;99.90;;;;;;5012418;28;20046;-83
2023/10/12 12:30:07;;;;;;;6.05;3.03;;;17.70;99.90;;;;;;5013105;28;20127;-84
2023/10/12 12:32:33;;;;;;;6.35;2.15;;;17.70;99.90;;;;;;5013593;28;20111;-84
2023/10/12 12:35:02;;;;;;;10.20;3.08;;;17.60;99.90;;;;;;5013817;28;20042;-83
2023/10/12 12:37:29;;;;;;;8.85;3.08;;;17.60;99.90;;;;;;5013271;28;20050;-84
2023/10/12 12:42:39;;;;;;;5.78;2.92;;;17.40;99.90;;;;;;5012905;28;20509;-83
2023/10/12 12:45:05;;;;;;;4.90;2.15;;;17.40;99.90;;;;;;5013676;28;20037;-83
2023/10/12 12:47:32;;;;;;;4.30;2.22;;;17.30;99.90;;;;;;5013028;28;20131;-83
2023/10/12 12:50:02;;;;;;;5.25;2.05;;;17.20;99.90;;;;;;5012517;28;20215;-84
2023/10/12 12:52:28;;;;;;;7.78;1.80;;;17.20;99.90;;;;;;5012546;28;20173;-78
2023/10/12 12:54:53;;;;;;;9.45;2.58;;;17.10;99.90;;;;;;5012599;28;20065;-84
2023/10/12 12:57:19;;;;;;;9.20;2.70;;;17.10;99.90;;;;;;5012029;28;20054;-83
2023/10/12 12:59:44;;;;;;;8.00;2.33;;;17.00;99.90;;;;;;5012768;28;20045;-83
2023/10/12 13:02:10;;;;;;;5.57;1.90;;;17.00;99.90;;;;;;5012570;28;20511;-81
2023/10/12 13:04:36;;;;;;;7.25;2.38;;;17.00;99.90;;;;;;5012587;28;20065;-84
2023/10/12 13:07:08;;;;;;;4.75;2.22;;;17.00;99.90;;;;;;5012429;28;20081;-81
2023/10/12 13:09:36;;;;;;;6.07;1.80;;;17.00;99.90;;;;;;5012623;28;20050;-82
2023/10/12 13:12:06;;;;;;;4.47;2.80;;;17.10;99.90;;;;;;5012456;28;20108;-82
2023/10/12 13:14:32;;;;;;;6.15;2.45;;;17.10;99.90;;;;;;5012653;28;20053;-82
2023/10/12 13:16:58;;;;;;;6.90;2.05;;;17.10;99.90;;;;;;5012951;28;20057;-81
2023/10/12 13:19:24;;;;;;;8.75;2.67;;;17.10;99.90;;;;;;5011170;28;20045;-80
2023/10/12 13:21:50;;;;;;;6.40;2.58;;;17.00;99.90;;;;;;5013733;28;20164;-84
2023/10/12 13:24:16;;;;;;;7.57;3.47;;;17.10;99.90;;;;;;5016804;28;20042;-83
2023/10/12 13:26:45;;;;;;;5.53;2.20;;;17.00;99.90;;;;;;5016613;28;20076;-81
2023/10/12 13:29:12;;;;;;;6.10;2.35;;;17.00;99.90;;;;;;5016765;28;20041;-83
2023/10/12 13:31:38;;;;;;;8.15;2.55;;;16.90;99.90;;;;;;5016936;28;20417;-83
2023/10/12 13:34:05;;;;;;;7.72;2.35;;;16.90;99.90;;;;;;5016373;28;20113;-83
2023/10/12 13:36:34;;;;;;;7.65;2.60;;;16.80;99.90;;;;;;5016641;28;20400;-84
2023/10/12 13:39:00;;;;;;;5.15;2.50;;;16.80;99.90;;;;;;5016230;28;20050;-82
2023/10/12 13:41:26;;;;;;;5.80;2.92;;;16.70;99.90;;;;;;5016279;28;20052;-81
2023/10/12 13:43:52;;;;;;;5.20;2.67;;;16.70;99.90;;;;;;5016057;28;20054;-80
2023/10/12 13:46:18;;;;;;;8.45;2.30;;;16.60;99.90;;;;;;5015942;28;20046;-82
2023/10/12 13:48:47;;;;;;;5.75;2.38;;;16.40;99.90;;;;;;5016511;28;20491;-84
2023/10/12 13:51:23;;;;;;;3.80;2.20;;;16.60;99.90;;;;;;5015912;28;20455;-82
2023/10/12 13:53:51;;;;;;;7.07;2.53;;;16.50;99.90;;;;;;5015873;28;20037;-83
2023/10/12 13:56:23;;;;;;;6.85;2.30;;;16.50;99.90;;;;;;5016280;28;20128;-82
2023/10/12 13:58:52;;;;;;;6.45;2.47;;;16.40;99.90;;;;;;5015660;28;20073;-82
2023/10/12 14:01:20;;;;;;;4.10;2.17;;;16.40;99.90;;;;;;5015736;28;20483;-82
2023/10/12 14:03:53;;;;;;;6.40;2.42;;;16.40;99.90;;;;;;5015920;28;20068;-83
2023/10/12 14:06:20;;;;;;;3.47;2.05;;;16.30;99.90;;;;;;5015889;28;20038;-82
2023/10/12 14:08:46;;;;;;;8.88;2.47;;;16.30;99.90;;;;;;5016276;28;20064;-83
2023/10/12 14:11:16;;;;;;;9.10;2.42;;;16.20;99.90;;;;;;5015652;28;20049;-81
2023/10/12 14:13:43;;;;;;;13.70;2.95;;;16.20;99.90;;;;;;5015567;28;20050;-76
2023/10/12 14:16:10;;;;;;;7.05;2.70;;;16.10;99.90;;;;;;5015627;28;20046;-82
2023/10/12 14:18:36;;;;;;;6.50;2.10;;;16.10;99.90;;;;;;5015525;28;20045;-82
2023/10/12 14:21:02;;;;;;;5.40;2.22;;;16.10;99.90;;;;;;5015836;28;20124;-83
2023/10/12 14:23:29;;;;;;;5.88;2.72;;;16.10;99.90;;;;;;5015764;28;20471;-84
2023/10/12 14:25:57;;;;;;;5.28;2.47;;;16.10;99.90;;;;;;5015589;28;20050;-85
2023/10/12 14:28:24;;;;;;;4.28;2.35;;;16.10;99.90;;;;;;5015214;28;20061;-83
2023/10/12 14:30:50;;;;;;;9.98;3.35;;;16.10;99.90;;;;;;5015193;28;20046;-82
2023/10/12 14:33:20;;;;;;;9.65;2.75;;;16.10;99.90;;;;;;5015438;28;20056;-82
2023/10/12 14:35:48;;;;;;;8.20;2.60;;;16.00;99.90;;;;;;5015640;28;20053;-84
2023/10/12 14:38:14;;;;;;;5.00;3.60;;;15.80;99.90;;;;;;5014185;28;20072;-82
2023/10/12 14:40:42;;;;;;;6.55;3.00;;;15.70;99.90;;;;;;5015747;28;20510;-81
2023/10/12 14:43:12;;;;;;;10.02;2.22;;;15.50;99.90;;;;;;5015226;28;20058;-81
2023/10/12 14:45:49;;;;;;;6.55;3.13;;;15.30;99.90;;;;;;5015171;28;20037;-78
2023/10/12 14:48:18;;;;;;;4.40;2.42;;;15.20;99.90;;;;;;5015059;28;20049;-80
2023/10/12 14:50:49;;;;;;;6.65;2.63;;;15.00;99.90;;;;;;5013795;28;20100;-79
2023/10/12 14:53:21;;;;;;;7.57;2.42;;;15.00;99.90;;;;;;5014107;28;20049;-80
2023/10/12 14:55:51;;;;;;;9.73;2.72;;;15.00;99.90;;;;;;5014842;28;20077;-79
2023/10/12 14:58:17;;;;;;;6.22;2.60;;;14.90;99.90;;;;;;5015205;28;20108;-80
2023/10/12 15:00:44;;;;;;;7.30;3.00;;;15.00;99.90;;;;;;5015012;28;20057;-80
2023/10/12 15:03:15;;;;;;;9.38;2.60;;;15.00;99.90;;;;;;5014508;28;20061;-80